| time (UTC) | temp C | wind direction | speed KPH | gust KPH | rain 1hr cm | rain 24hr cm | rain mn cm | humidity % | barometer mb |
| 20260506201547 | 21 | 217 | 1.6 | 16.1 | 0.00 | 0.00 | 0.00 | 42 | 1017.3 |
| 20260506201051 | 23 | 152 | 6.4 | 14.5 | 0.00 | 0.00 | 0.00 | 28 | 1016.8 |
| 20260506200545 | 23 | 39 | 3.2 | 17.7 | 0.00 | 0.00 | 0.00 | 28 | 1016.9 |
| 20260506200059 | 22 | 321 | 6.4 | 17.7 | 0.00 | 0.00 | 0.00 | 29 | 1017.0 |
| 20260506200046 | 21 | 284 | 3.2 | 20.9 | 0.00 | 0.00 | 0.00 | 43 | 1017.5 |
| 20260506195543 | 22 | 122 | 9.7 | 16.1 | 0.00 | 0.00 | 0.00 | 28 | 1017.1 |
| 20260506195042 | 22 | 95 | 8.0 | 20.9 | 0.00 | 0.00 | 0.00 | 29 | 1017.1 |
| 20260506194604 | 22 | 144 | 8.0 | 20.9 | 0.00 | 0.00 | 0.00 | 30 | 1017.0 |
| 20260506194540 | 20 | 275 | 4.8 | 16.1 | 0.00 | 0.00 | 0.00 | 45 | 1017.5 |
| 20260506194046 | 22 | 117 | 12.9 | 20.9 | 0.00 | 0.00 | 0.00 | 29 | 1017.0 |
| 20260506193542 | 22 | 149 | 4.8 | 16.1 | 0.00 | 0.00 | 0.00 | 30 | 1017.0 |
| 20260506193055 | 22 | 203 | 3.2 | 19.3 | 0.00 | 0.00 | 0.00 | 30 | 1017.0 |
| 20260506193049 | 20 | 249 | 8.0 | 17.7 | 0.00 | 0.00 | 0.00 | 47 | 1017.7 |
| 20260506192548 | 22 | 140 | 6.4 | 19.3 | 0.00 | 0.00 | 0.00 | 30 | 1017.1 |
| 20260506192042 | 22 | 160 | 9.7 | 17.7 | 0.00 | 0.00 | 0.00 | 30 | 1017.2 |
| 20260506191552 | 22 | 84 | 8.0 | 17.7 | 0.00 | 0.00 | 0.00 | 30 | 1017.2 |
| 20260506191538 | 20 | 347 | 3.2 | 17.7 | 0.00 | 0.00 | 0.00 | 49 | 1017.8 |
| 20260506191047 | 22 | 136 | 11.3 | 17.7 | 0.00 | 0.00 | 0.00 | 30 | 1017.2 |
| 20260506190544 | 21 | 204 | 3.2 | 20.9 | 0.00 | 0.00 | 0.00 | 31 | 1017.2 |
| 20260506190050 | 21 | 181 | 9.7 | 20.9 | 0.00 | 0.00 | 0.00 | 31 | 1017.4 |
| 20260506190047 | 20 | 244 | 4.8 | 17.7 | 0.00 | 0.00 | 0.00 | 50 | 1017.9 |
| 20260506185545 | 22 | 155 | 6.4 | 16.1 | 0.00 | 0.00 | 0.00 | 31 | 1017.3 |
| 20260506185049 | 21 | 87 | 6.4 | 14.5 | 0.00 | 0.00 | 0.00 | 31 | 1017.4 |
| 20260506184607 | 21 | 181 | 6.4 | 17.7 | 0.00 | 0.00 | 0.00 | 32 | 1017.4 |
| 20260506184546 | 18 | 338 | 6.4 | 17.7 | 0.00 | 0.00 | 0.00 | 54 | 1018.0 |
| 20260506184045 | 21 | 92 | 6.4 | 17.7 | 0.00 | 0.00 | 0.00 | 31 | 1017.3 |
| 20260506183546 | 21 | 148 | 8.0 | 19.3 | 0.00 | 0.00 | 0.00 | 32 | 1017.3 |
| 20260506183102 | 21 | 131 | 8.0 | 19.3 | 0.00 | 0.00 | 0.00 | 32 | 1017.3 |
| 20260506183043 | 18 | 252 | 8.0 | 16.1 | 0.00 | 0.00 | 0.00 | 55 | 1018.2 |
| 20260506182545 | 21 | 169 | 8.0 | 17.7 | 0.00 | 0.00 | 0.00 | 32 | 1017.3 |
| 20260506182047 | 21 | 159 | 11.3 | 17.7 | 0.00 | 0.00 | 0.00 | 32 | 1017.2 |
| 20260506181555 | 20 | 181 | 8.0 | 19.3 | 0.00 | 0.00 | 0.00 | 33 | 1017.2 |
| 20260506181547 | 18 | 0 | 4.8 | 14.5 | 0.00 | 0.00 | 0.00 | 56 | 1018.3 |
| 20260506181046 | 21 | 101 | 8.0 | 19.3 | 0.00 | 0.00 | 0.00 | 32 | 1017.2 |
| 20260506180545 | 21 | 105 | 6.4 | 20.9 | 0.00 | 0.00 | 0.00 | 33 | 1017.3 |
| 20260506180050 | 21 | 98 | 12.9 | 20.9 | 0.00 | 0.00 | 0.00 | 33 | 1017.3 |
| 20260506180048 | 17 | 244 | 9.7 | 19.3 | 0.00 | 0.00 | 0.00 | 57 | 1018.4 |
| 20260506175545 | 20 | 132 | 6.4 | 17.7 | 0.00 | 0.00 | 0.00 | 34 | 1017.4 |
| 20260506175045 | 20 | 140 | 11.3 | 20.9 | 0.00 | 0.00 | 0.00 | 33 | 1017.3 |
| 20260506174555 | 17 | 283 | 6.4 | 20.9 | 0.00 | 0.00 | 0.00 | 60 | 1018.6 |
| 20260506174548 | 20 | 146 | 9.7 | 20.9 | 0.00 | 0.00 | 0.00 | 34 | 1017.2 |
| 20260506174046 | 20 | 130 | 12.9 | 20.9 | 0.00 | 0.00 | 0.00 | 34 | 1017.2 |
| 20260506173546 | 20 | 141 | 8.0 | 20.9 | 0.00 | 0.00 | 0.00 | 34 | 1017.1 |
| 20260506173054 | 20 | 120 | 8.0 | 20.9 | 0.00 | 0.00 | 0.00 | 34 | 1017.0 |
| 20260506173046 | 16 | 325 | 4.8 | 14.5 | 0.00 | 0.00 | 0.00 | 60 | 1018.5 |
| 20260506172549 | 20 | 146 | 9.7 | 16.1 | 0.00 | 0.00 | 0.00 | 34 | 1016.9 |
| 20260506172045 | 20 | 155 | 4.8 | 16.1 | 0.00 | 0.00 | 0.00 | 35 | 1016.9 |
| 20260506171554 | 20 | 160 | 6.4 | 16.1 | 0.00 | 0.00 | 0.00 | 35 | 1016.9 |
| 20260506171540 | 16 | 266 | 4.8 | 17.7 | 0.00 | 0.00 | 0.00 | 61 | 1018.5 |
| 20260506171053 | 19 | 130 | 8.0 | 16.1 | 0.00 | 0.00 | 0.00 | 35 | 1016.9 |
| 20260506170551 | 19 | 105 | 8.0 | 16.1 | 0.00 | 0.00 | 0.00 | 36 | 1016.9 |
| 20260506170107 | 19 | 120 | 9.7 | 16.1 | 0.00 | 0.00 | 0.00 | 35 | 1016.8 |
| 20260506170043 | 16 | 18 | 4.8 | 12.9 | 0.00 | 0.00 | 0.00 | 62 | 1018.5 |
| 20260506165548 | 19 | 158 | 4.8 | 16.1 | 0.00 | 0.00 | 0.00 | 36 | 1016.8 |
| 20260506165046 | 19 | 127 | 9.7 | 16.1 | 0.00 | 0.00 | 0.00 | 36 | 1016.7 |
| 20260506164552 | 19 | 164 | 8.0 | 17.7 | 0.00 | 0.00 | 0.00 | 36 | 1016.7 |
| 20260506164546 | 15 | 212 | 6.4 | 16.1 | 0.00 | 0.00 | 0.00 | 63 | 1018.5 |
| 20260506164049 | 19 | 111 | 8.0 | 17.7 | 0.00 | 0.00 | 0.00 | 36 | 1016.8 |
| 20260506163545 | 19 | 71 | 9.7 | 17.7 | 0.00 | 0.00 | 0.00 | 36 | 1017.0 |
| 20260506163104 | 19 | 62 | 9.7 | 16.1 | 0.00 | 0.00 | 0.00 | 36 | 1016.9 |
| 20260506163053 | 15 | 277 | 3.2 | 12.9 | 0.00 | 0.00 | 0.00 | 64 | 1018.5 |
| 20260506162545 | 20 | 124 | 4.8 | 14.5 | 0.00 | 0.00 | 0.00 | 36 | 1016.7 |
| 20260506162045 | 19 | 108 | 8.0 | 16.1 | 0.00 | 0.00 | 0.00 | 36 | 1016.6 |
| 20260506161554 | 19 | 172 | 6.4 | 16.1 | 0.00 | 0.00 | 0.00 | 36 | 1016.6 |
| 20260506161541 | 15 | 0 | 3.2 | 6.4 | 0.00 | 0.00 | 0.00 | 63 | 1018.4 |
| 20260506161045 | 19 | 165 | 6.4 | 12.9 | 0.00 | 0.00 | 0.00 | 36 | 1016.6 |
| 20260506160545 | 19 | 123 | 8.0 | 12.9 | 0.00 | 0.00 | 0.00 | 36 | 1016.4 |
| 20260506160107 | 19 | 109 | 6.4 | 11.3 | 0.00 | 0.00 | 0.00 | 36 | 1016.3 |
| 20260506160051 | 14 | 229 | 0.0 | 6.4 | 0.00 | 0.00 | 0.00 | 67 | 1018.4 |
| 20260506155545 | 19 | 104 | 3.2 | 6.4 | 0.00 | 0.00 | 0.00 | 35 | 1016.3 |
| 20260506155053 | 19 | 0 | 1.6 | 6.4 | 0.00 | 0.00 | 0.00 | 35 | 1016.4 |
| 20260506154604 | 19 | 0 | 0.0 | 6.4 | 0.00 | 0.00 | 0.00 | 35 | 1016.3 |
| 20260506154548 | 13 | 275 | 0.0 | 6.4 | 0.00 | 0.00 | 0.00 | 66 | 1018.4 |
| 20260506154044 | 18 | 85 | 3.2 | 6.4 | 0.00 | 0.00 | 0.00 | 35 | 1016.3 |
| 20260506153546 | 18 | 145 | 3.2 | 8.0 | 0.00 | 0.00 | 0.00 | 36 | 1016.2 |
| 20260506153054 | 18 | 82 | 3.2 | 9.7 | 0.00 | 0.00 | 0.00 | 36 | 1016.1 |
| 20260506153052 | 13 | 0 | 1.6 | 4.8 | 0.00 | 0.00 | 0.00 | 70 | 1018.3 |
| 20260506152546 | 18 | 81 | 3.2 | 9.7 | 0.00 | 0.00 | 0.00 | 36 | 1016.1 |
| 20260506152046 | 18 | 118 | 4.8 | 9.7 | 0.00 | 0.00 | 0.00 | 37 | 1016.1 |
| 20260506151555 | 17 | 192 | 4.8 | 8.0 | 0.00 | 0.00 | 0.00 | 37 | 1016.2 |
| 20260506151543 | 13 | 0 | 0.0 | 0.0 | 0.00 | 0.00 | 0.00 | 72 | 1018.4 |
| 20260506151048 | 17 | 101 | 4.8 | 8.0 | 0.00 | 0.00 | 0.00 | 38 | 1016.2 |
| 20260506150545 | 17 | 141 | 4.8 | 8.0 | 0.00 | 0.00 | 0.00 | 37 | 1016.2 |
| 20260506150057 | 12 | 0 | 0.0 | 1.6 | 0.00 | 0.00 | 0.00 | 78 | 1018.4 |
| 20260506150047 | 17 | 119 | 4.8 | 8.0 | 0.00 | 0.00 | 0.00 | 39 | 1016.2 |
| 20260506145546 | 17 | 102 | 4.8 | 8.0 | 0.00 | 0.00 | 0.00 | 39 | 1016.2 |
| 20260506145049 | 17 | 150 | 4.8 | 9.7 | 0.00 | 0.00 | 0.00 | 39 | 1016.0 |
| 20260506144608 | 16 | 105 | 4.8 | 9.7 | 0.00 | 0.00 | 0.00 | 40 | 1016.0 |
| 20260506144602 | 11 | 0 | 0.0 | 0.0 | 0.00 | 0.00 | 0.00 | 82 | 1018.5 |
| 20260506144045 | 16 | 146 | 4.8 | 8.0 | 0.00 | 0.00 | 0.00 | 39 | 1015.9 |
| 20260506143545 | 16 | 119 | 3.2 | 6.4 | 0.00 | 0.00 | 0.00 | 40 | 1015.8 |
| 20260506143055 | 16 | 126 | 3.2 | 6.4 | 0.00 | 0.00 | 0.00 | 41 | 1015.7 |
| 20260506142545 | 16 | 97 | 3.2 | 4.8 | 0.00 | 0.00 | 0.00 | 41 | 1015.7 |
| 20260506142044 | 16 | 120 | 1.6 | 4.8 | 0.00 | 0.00 | 0.00 | 41 | 1015.7 |
| 20260506141550 | 16 | 0 | 0.0 | 0.0 | 0.00 | 0.00 | 0.00 | 42 | 1015.6 |
| 20260506141546 | 10 | 0 | 0.0 | 0.0 | 0.00 | 0.00 | 0.00 | 89 | 1018.3 |
| 20260506141046 | 15 | 0 | 0.0 | 0.0 | 0.00 | 0.00 | 0.00 | 43 | 1015.6 |
| 20260506140547 | 15 | 0 | 0.0 | 0.0 | 0.00 | 0.00 | 0.00 | 44 | 1015.5 |
| 20260506140048 | 14 | 0 | 0.0 | 0.0 | 0.00 | 0.00 | 0.00 | 46 | 1015.5 |
| 20260506135545 | 13 | 0 | 0.0 | 0.0 | 0.00 | 0.00 | 0.00 | 48 | 1015.5 |
| 20260506135044 | 13 | 0 | 0.0 | 0.0 | 0.00 | 0.00 | 0.00 | 49 | 1015.4 |
| 20260506134553 | 13 | 0 | 0.0 | 0.0 | 0.00 | 0.00 | 0.00 | 50 | 1015.3 |
| 20260506134547 | 7 | 0 | 0.0 | 3.2 | 0.00 | 0.00 | 0.00 | 91 | 1018.2 |
| 20260506134046 | 12 | 0 | 0.0 | 0.0 | 0.00 | 0.00 | 0.00 | 51 | 1015.2 |
| 20260506133545 | 11 | 0 | 0.0 | 0.0 | 0.00 | 0.00 | 0.00 | 54 | 1015.2 |
| 20260506133050 | 11 | 0 | 0.0 | 4.8 | 0.00 | 0.00 | 0.00 | 55 | 1015.1 |
| 20260506133043 | 6 | 0 | 0.0 | 0.0 | 0.00 | 0.00 | 0.00 | 92 | 1018.1 |
| 20260506132545 | 11 | 0 | 0.0 | 4.8 | 0.00 | 0.00 | 0.00 | 56 | 1015.0 |
| 20260506132049 | 10 | 335 | 0.0 | 6.4 | 0.00 | 0.00 | 0.00 | 57 | 1015.1 |
| 20260506131549 | 10 | 315 | 1.6 | 8.0 | 0.00 | 0.00 | 0.00 | 58 | 1015.0 |
| 20260506131547 | 6 | 0 | 0.0 | 0.0 | 0.00 | 0.00 | 0.00 | 91 | 1018.0 |
| 20260506131045 | 10 | 307 | 4.8 | 9.7 | 0.00 | 0.00 | 0.00 | 58 | 1015.0 |
| 20260506130545 | 10 | 323 | 6.4 | 9.7 | 0.00 | 0.00 | 0.00 | 59 | 1015.0 |
| 20260506130114 | 6 | 0 | 0.0 | 3.2 | 0.00 | 0.00 | 0.00 | 91 | 1017.9 |
| 20260506130058 | 9 | 6 | 4.8 | 8.0 | 0.00 | 0.00 | 0.00 | 60 | 1014.9 |
| 20260506125550 | 9 | 329 | 3.2 | 6.4 | 0.00 | 0.00 | 0.00 | 61 | 1014.9 |
| 20260506125045 | 8 | 341 | 4.8 | 6.4 | 0.00 | 0.00 | 0.00 | 61 | 1014.9 |
| 20260506124549 | 9 | 328 | 4.8 | 6.4 | 0.00 | 0.00 | 0.00 | 61 | 1014.9 |
| 20260506124045 | 9 | 323 | 4.8 | 6.4 | 0.00 | 0.00 | 0.00 | 60 | 1014.7 |
| 20260506123545 | 9 | 330 | 4.8 | 6.4 | 0.00 | 0.00 | 0.00 | 59 | 1014.8 |
| 20260506123049 | 10 | 336 | 3.2 | 4.8 | 0.00 | 0.00 | 0.00 | 58 | 1014.8 |
| 20260506123047 | 6 | 0 | 0.0 | 1.6 | 0.00 | 0.03 | 0.00 | 91 | 1017.8 |
| 20260506122547 | 9 | 289 | 3.2 | 6.4 | 0.00 | 0.00 | 0.00 | 60 | 1014.7 |
| 20260506122045 | 9 | 317 | 1.6 | 6.4 | 0.00 | 0.00 | 0.00 | 60 | 1014.6 |
| 20260506121556 | 9 | 323 | 4.8 | 9.7 | 0.00 | 0.00 | 0.00 | 60 | 1014.6 |
| 20260506121550 | 6 | 0 | 0.0 | 0.0 | 0.00 | 0.03 | 0.00 | 91 | 1017.7 |
| 20260506121045 | 9 | 338 | 4.8 | 9.7 | 0.00 | 0.00 | 0.00 | 60 | 1014.6 |
| 20260506120608 | 9 | 330 | 6.4 | 9.7 | 0.00 | 0.00 | 0.00 | 60 | 1014.5 |
| 20260506120108 | 10 | 354 | 6.4 | 8.0 | 0.00 | 0.00 | 0.00 | 59 | 1014.5 |
| 20260506120039 | 6 | 84 | 0.0 | 1.6 | 0.00 | 0.03 | 0.00 | 91 | 1017.7 |
| 20260506115545 | 10 | 355 | 4.8 | 8.0 | 0.00 | 0.00 | 0.00 | 59 | 1014.5 |
| 20260506115045 | 10 | 338 | 4.8 | 8.0 | 0.00 | 0.00 | 0.00 | 59 | 1014.5 |
| 20260506114556 | 10 | 340 | 4.8 | 8.0 | 0.00 | 0.00 | 0.00 | 59 | 1014.5 |
| 20260506114537 | 6 | 0 | 0.0 | 1.6 | 0.00 | 0.13 | 0.00 | 91 | 1017.6 |
| 20260506114044 | 9 | 334 | 4.8 | 6.4 | 0.00 | 0.00 | 0.00 | 59 | 1014.5 |
| 20260506113545 | 9 | 338 | 3.2 | 6.4 | 0.00 | 0.00 | 0.00 | 58 | 1014.4 |
| 20260506113056 | 9 | 340 | 3.2 | 4.8 | 0.00 | 0.00 | 0.00 | 58 | 1014.3 |
| 20260506113051 | 6 | 0 | 0.0 | 3.2 | 0.00 | 0.13 | 0.00 | 91 | 1017.7 |
| 20260506112546 | 9 | 327 | 3.2 | 6.4 | 0.00 | 0.00 | 0.00 | 58 | 1014.3 |
| 20260506112045 | 10 | 343 | 4.8 | 6.4 | 0.00 | 0.00 | 0.00 | 58 | 1014.2 |
| 20260506111550 | 10 | 356 | 0.0 | 6.4 | 0.00 | 0.00 | 0.00 | 57 | 1014.2 |
| 20260506111544 | 7 | 88 | 1.6 | 6.4 | 0.00 | 0.13 | 0.00 | 91 | 1017.5 |
| 20260506111045 | 10 | 333 | 3.2 | 6.4 | 0.00 | 0.00 | 0.00 | 58 | 1014.1 |
| 20260506110546 | 10 | 309 | 3.2 | 6.4 | 0.00 | 0.00 | 0.00 | 58 | 1014.1 |
| 20260506110054 | 10 | 333 | 4.8 | 6.4 | 0.00 | 0.00 | 0.00 | 57 | 1013.9 |
| 20260506110043 | 6 | 0 | 0.0 | 6.4 | 0.00 | 0.13 | 0.00 | 91 | 1017.5 |
| 20260506105545 | 10 | 11 | 0.0 | 6.4 | 0.00 | 0.00 | 0.00 | 56 | 1014.0 |
| 20260506105045 | 10 | 358 | 4.8 | 8.0 | 0.00 | 0.00 | 0.00 | 55 | 1013.9 |
| 20260506104556 | 6 | 105 | 3.2 | 6.4 | 0.00 | 0.15 | 0.00 | 92 | 1017.6 |
| 20260506104553 | 11 | 321 | 4.8 | 8.0 | 0.00 | 0.00 | 0.00 | 54 | 1014.0 |
| 20260506104044 | 11 | 318 | 0.0 | 4.8 | 0.00 | 0.00 | 0.00 | 53 | 1014.0 |
| 20260506103550 | 11 | 17 | 1.6 | 4.8 | 0.00 | 0.00 | 0.00 | 51 | 1014.0 |
| 20260506103055 | 12 | 7 | 0.0 | 3.2 | 0.00 | 0.00 | 0.00 | 50 | 1013.9 |
| 20260506103045 | 7 | 0 | 0.0 | 0.0 | 0.00 | 0.15 | 0.00 | 91 | 1017.5 |
| 20260506102549 | 12 | 0 | 0.0 | 6.4 | 0.00 | 0.00 | 0.00 | 49 | 1013.9 |
| 20260506102049 | 12 | 0 | 1.6 | 6.4 | 0.00 | 0.00 | 0.00 | 48 | 1013.8 |
| 20260506101552 | 12 | 289 | 0.0 | 6.4 | 0.00 | 0.00 | 0.00 | 49 | 1013.8 |
| 20260506101546 | 7 | 67 | 0.0 | 3.2 | 0.00 | 0.15 | 0.00 | 91 | 1017.4 |
| 20260506101050 | 12 | 289 | 3.2 | 6.4 | 0.00 | 0.00 | 0.00 | 49 | 1013.8 |
| 20260506100550 | 12 | 304 | 3.2 | 8.0 | 0.00 | 0.00 | 0.00 | 49 | 1013.9 |
| 20260506100051 | 12 | 302 | 4.8 | 8.0 | 0.00 | 0.00 | 0.00 | 50 | 1013.9 |
| 20260506095551 | 12 | 276 | 4.8 | 8.0 | 0.00 | 0.00 | 0.00 | 51 | 1013.7 |
| 20260506095052 | 11 | 279 | 3.2 | 8.0 | 0.00 | 0.00 | 0.00 | 52 | 1013.8 |
| 20260506094551 | 11 | 263 | 3.2 | 8.0 | 0.00 | 0.00 | 0.00 | 53 | 1013.8 |
| 20260506094544 | 7 | 0 | 0.0 | 3.2 | 0.00 | 0.15 | 0.00 | 91 | 1017.3 |
| 20260506094048 | 10 | 297 | 4.8 | 8.0 | 0.00 | 0.00 | 0.00 | 55 | 1013.8 |
| 20260506093552 | 10 | 297 | 3.2 | 4.8 | 0.00 | 0.00 | 0.00 | 54 | 1013.8 |
| 20260506093053 | 10 | 0 | 0.0 | 0.0 | 0.00 | 0.00 | 0.00 | 56 | 1013.9 |
| 20260506093042 | 7 | 0 | 0.0 | 4.8 | 0.00 | 0.15 | 0.00 | 91 | 1017.3 |
| 20260506092549 | 10 | 0 | 0.0 | 1.6 | 0.00 | 0.00 | 0.00 | 55 | 1013.9 |
| 20260506092052 | 10 | 0 | 0.0 | 3.2 | 0.00 | 0.00 | 0.00 | 55 | 1013.9 |
| 20260506091559 | 10 | 0 | 0.0 | 6.4 | 0.00 | 0.00 | 0.00 | 55 | 1013.8 |
| 20260506091547 | 7 | 67 | 0.0 | 4.8 | 0.00 | 0.15 | 0.00 | 91 | 1017.4 |
| 20260506091049 | 10 | 290 | 1.6 | 6.4 | 0.00 | 0.00 | 0.00 | 56 | 1013.7 |
| 20260506090549 | 10 | 310 | 3.2 | 6.4 | 0.00 | 0.00 | 0.00 | 54 | 1013.8 |
| 20260506090056 | 10 | 269 | 1.6 | 4.8 | 0.00 | 0.00 | 0.00 | 57 | 1013.7 |
| 20260506090046 | 7 | 67 | 0.0 | 3.2 | 0.00 | 0.15 | 0.00 | 91 | 1017.5 |
| 20260506085549 | 9 | 0 | 0.0 | 0.0 | 0.00 | 0.00 | 0.00 | 56 | 1013.8 |
| 20260506085049 | 10 | 0 | 0.0 | 0.0 | 0.00 | 0.00 | 0.00 | 56 | 1013.8 |
| 20260506084609 | 9 | 0 | 0.0 | 0.0 | 0.00 | 0.00 | 0.00 | 56 | 1013.9 |
| 20260506084552 | 7 | 0 | 0.0 | 0.0 | 0.00 | 0.15 | 0.00 | 90 | 1017.6 |
| 20260506084050 | 10 | 0 | 0.0 | 0.0 | 0.00 | 0.00 | 0.00 | 55 | 1013.9 |
| 20260506083550 | 10 | 0 | 0.0 | 0.0 | 0.00 | 0.00 | 0.00 | 55 | 1013.8 |
| 20260506083053 | 8 | 70 | 0.0 | 3.2 | 0.00 | 0.15 | 0.00 | 89 | 1017.7 |
| 20260506083050 | 10 | 0 | 0.0 | 4.8 | 0.00 | 0.00 | 0.00 | 56 | 1013.8 |
| 20260506082550 | 10 | 0 | 0.0 | 4.8 | 0.00 | 0.00 | 0.00 | 55 | 1013.8 |
| 20260506082126 | 11 | 346 | 3.2 | 6.4 | 0.00 | 0.00 | 0.00 | 54 | 1013.9 |
| 20260506081604 | 8 | 0 | 0.0 | 0.0 | 0.00 | 0.15 | 0.00 | 88 | 1017.8 |
| 20260506081553 | 11 | 346 | 3.2 | 6.4 | 0.00 | 0.00 | 0.00 | 54 | 1013.8 |
| 20260506081043 | 11 | 345 | 0.0 | 4.8 | 0.00 | 0.00 | 0.00 | 53 | 1013.8 |
| 20260506080545 | 11 | 347 | 1.6 | 6.4 | 0.00 | 0.00 | 0.00 | 53 | 1014.0 |
| 20260506073058 | 12 | 0 | 0.0 | 8.0 | 0.00 | 0.00 | 0.00 | 49 | 1013.7 |
| 20260506073050 | 10 | 0 | 0.0 | 1.6 | 0.00 | 0.15 | 0.00 | 88 | 1018.4 |
| 20260506072542 | 13 | 66 | 0.0 | 8.0 | 0.00 | 0.00 | 0.00 | 47 | 1013.6 |
| 20260506072047 | 13 | 89 | 0.0 | 6.4 | 0.00 | 0.00 | 0.00 | 46 | 1013.5 |
| 20260506071553 | 13 | 177 | 3.2 | 8.0 | 0.00 | 0.00 | 0.00 | 47 | 1013.4 |
| 20260506071546 | 10 | 0 | 0.0 | 0.0 | 0.00 | 0.15 | 0.00 | 88 | 1018.3 |
| 20260506071050 | 13 | 137 | 4.8 | 8.0 | 0.00 | 0.00 | 0.00 | 48 | 1013.4 |
| 20260506070547 | 12 | 108 | 0.0 | 4.8 | 0.00 | 0.00 | 0.00 | 48 | 1013.4 |
| 20260506062044 | 12 | 131 | 0.0 | 0.0 | 0.00 | 0.00 | 0.00 | 49 | 1013.1 |
| 20260506061600 | 13 | 0 | 0.0 | 4.8 | 0.00 | 0.00 | 0.00 | 46 | 1013.1 |
| 20260506061544 | 10 | 0 | 0.0 | 0.0 | 0.00 | 0.15 | 0.15 | 88 | 1017.9 |
| 20260506061044 | 13 | 0 | 0.0 | 6.4 | 0.00 | 0.00 | 0.00 | 45 | 1013.1 |
| 20260506060546 | 14 | 0 | 0.0 | 12.9 | 0.00 | 0.00 | 0.00 | 45 | 1013.1 |
| 20260506051047 | 13 | 203 | 0.0 | 0.0 | 0.00 | 0.00 | 0.00 | 39 | 1012.8 |
| 20260506050544 | 13 | 0 | 0.0 | 0.0 | 0.00 | 0.00 | 0.00 | 39 | 1012.7 |
| 20260506050110 | 12 | 0 | 0.0 | 0.0 | 0.00 | 0.00 | 0.00 | 39 | 1012.5 |
| 20260506045046 | 12 | 0 | 0.0 | 3.2 | 0.00 | 0.00 | 0.00 | 39 | 1012.5 |
| 20260506044555 | 12 | 341 | 1.6 | 3.2 | 0.00 | 0.00 | 0.00 | 39 | 1012.5 |
| 20260506044550 | 11 | 244 | 1.6 | 11.3 | 0.00 | 0.15 | 0.15 | 81 | 1017.2 |
| 20260506044044 | 12 | 195 | 0.0 | 3.2 | 0.00 | 0.00 | 0.00 | 38 | 1012.4 |
| 20260506043547 | 12 | 0 | 0.0 | 3.2 | 0.00 | 0.00 | 0.00 | 37 | 1012.6 |
| 20260506043049 | 13 | 0 | 0.0 | 3.2 | 0.00 | 0.00 | 0.00 | 35 | 1012.6 |
| 20260506043042 | 11 | 209 | 3.2 | 12.9 | 0.00 | 0.15 | 0.15 | 80 | 1017.1 |
| 20260506042546 | 14 | 229 | 1.6 | 4.8 | 0.00 | 0.00 | 0.00 | 36 | 1012.5 |
| 20260506042045 | 14 | 209 | 1.6 | 4.8 | 0.00 | 0.00 | 0.00 | 36 | 1012.6 |
| 20260506041548 | 14 | 206 | 1.6 | 4.8 | 0.00 | 0.00 | 0.00 | 35 | 1012.5 |
| 20260506041541 | 11 | 243 | 1.6 | 12.9 | 0.00 | 0.15 | 0.15 | 79 | 1016.7 |
| 20260506041044 | 15 | 226 | 1.6 | 4.8 | 0.00 | 0.00 | 0.00 | 35 | 1012.5 |
| 20260506040545 | 15 | 223 | 3.2 | 6.4 | 0.00 | 0.00 | 0.00 | 35 | 1012.4 |
| 20260506040051 | 15 | 215 | 3.2 | 9.7 | 0.00 | 0.00 | 0.00 | 35 | 1012.4 |
| 20260506035545 | 15 | 229 | 4.8 | 9.7 | 0.00 | 0.00 | 0.00 | 35 | 1012.4 |
| 20260506035045 | 15 | 232 | 4.8 | 9.7 | 0.00 | 0.00 | 0.00 | 35 | 1012.2 |
| 20260506034606 | 11 | 226 | 9.7 | 17.7 | 0.00 | 0.15 | 0.15 | 77 | 1016.4 |
| 20260506034603 | 15 | 217 | 4.8 | 9.7 | 0.00 | 0.00 | 0.00 | 34 | 1012.1 |
| 20260506034045 | 15 | 219 | 6.4 | 11.3 | 0.00 | 0.00 | 0.00 | 34 | 1012.0 |
| 20260506033544 | 15 | 228 | 4.8 | 11.3 | 0.00 | 0.00 | 0.00 | 34 | 1012.0 |
| 20260506033102 | 11 | 222 | 4.8 | 17.7 | 0.00 | 0.15 | 0.15 | 75 | 1016.2 |
| 20260506033051 | 15 | 217 | 3.2 | 8.0 | 0.00 | 0.00 | 0.00 | 34 | 1012.0 |
| 20260506032545 | 15 | 229 | 3.2 | 8.0 | 0.00 | 0.00 | 0.00 | 34 | 1012.1 |
| 20260506032046 | 15 | 216 | 4.8 | 11.3 | 0.00 | 0.00 | 0.00 | 34 | 1011.9 |
| 20260506031554 | 15 | 214 | 4.8 | 12.9 | 0.00 | 0.00 | 0.00 | 34 | 1011.9 |
| 20260506031549 | 12 | 228 | 8.0 | 16.1 | 0.00 | 0.15 | 0.15 | 74 | 1016.1 |
| 20260506031049 | 16 | 226 | 6.4 | 12.9 | 0.00 | 0.00 | 0.00 | 33 | 1011.8 |
| 20260506030544 | 16 | 225 | 8.0 | 11.3 | 0.00 | 0.00 | 0.00 | 33 | 1011.7 |
| 20260506030055 | 16 | 226 | 6.4 | 11.3 | 0.00 | 0.00 | 0.00 | 33 | 1011.7 |
| 20260506030049 | 12 | 213 | 8.0 | 17.7 | 0.00 | 0.15 | 0.15 | 73 | 1015.9 |
| 20260506025544 | 16 | 229 | 6.4 | 12.9 | 0.00 | 0.00 | 0.00 | 33 | 1011.6 |
| 20260506025044 | 16 | 238 | 6.4 | 12.9 | 0.00 | 0.00 | 0.00 | 33 | 1011.6 |
| 20260506024559 | 16 | 260 | 8.0 | 14.5 | 0.00 | 0.00 | 0.00 | 33 | 1011.5 |
| 20260506024551 | 12 | 210 | 11.3 | 20.9 | 0.00 | 0.15 | 0.15 | 71 | 1015.8 |
| 20260506024044 | 16 | 252 | 8.0 | 14.5 | 0.00 | 0.00 | 0.00 | 32 | 1011.5 |
| 20260506023543 | 16 | 236 | 9.7 | 17.7 | 0.00 | 0.00 | 0.00 | 32 | 1011.3 |
| 20260506023054 | 12 | 227 | 9.7 | 17.7 | 0.00 | 0.15 | 0.15 | 70 | 1015.4 |
| 20260506022544 | 16 | 224 | 11.3 | 17.7 | 0.00 | 0.00 | 0.00 | 31 | 1011.1 |
| 20260506022047 | 16 | 220 | 11.3 | 17.7 | 0.00 | 0.00 | 0.00 | 31 | 1011.1 |
| 20260506021602 | 16 | 213 | 6.4 | 17.7 | 0.00 | 0.00 | 0.00 | 31 | 1011.1 |
| 20260506021549 | 12 | 234 | 9.7 | 20.9 | 0.00 | 0.15 | 0.15 | 69 | 1015.2 |
| 20260506021045 | 17 | 244 | 11.3 | 17.7 | 0.00 | 0.00 | 0.00 | 31 | 1010.9 |
| 20260506020546 | 17 | 236 | 9.7 | 16.1 | 0.00 | 0.00 | 0.00 | 30 | 1011.0 |
| 20260506020054 | 17 | 238 | 8.0 | 16.1 | 0.00 | 0.00 | 0.00 | 30 | 1010.9 |
| 20260506020047 | 12 | 242 | 9.7 | 20.9 | 0.00 | 0.15 | 0.15 | 69 | 1015.0 |
| 20260506015547 | 17 | 248 | 11.3 | 17.7 | 0.00 | 0.00 | 0.00 | 30 | 1010.8 |
| 20260506015047 | 17 | 217 | 9.7 | 17.7 | 0.00 | 0.00 | 0.00 | 29 | 1010.7 |
| 20260506014554 | 18 | 237 | 9.7 | 22.5 | 0.00 | 0.00 | 0.00 | 29 | 1010.7 |
| 20260506014546 | 13 | 277 | 11.3 | 24.1 | 0.00 | 0.15 | 0.15 | 70 | 1014.8 |
| 20260506014046 | 18 | 255 | 12.9 | 22.5 | 0.00 | 0.00 | 0.00 | 29 | 1010.7 |
| 20260506013545 | 18 | 236 | 14.5 | 22.5 | 0.00 | 0.00 | 0.00 | 29 | 1010.6 |
| 20260506013057 | 18 | 264 | 9.7 | 20.9 | 0.00 | 0.00 | 0.00 | 28 | 1010.5 |
| 20260506013053 | 13 | 244 | 12.9 | 24.1 | 0.00 | 0.15 | 0.15 | 68 | 1014.6 |
| 20260506012544 | 18 | 227 | 9.7 | 20.9 | 0.00 | 0.00 | 0.00 | 28 | 1010.4 |
| 20260506012046 | 18 | 245 | 11.3 | 22.5 | 0.00 | 0.00 | 0.00 | 28 | 1010.4 |
| 20260506011602 | 18 | 219 | 8.0 | 22.5 | 0.00 | 0.00 | 0.00 | 27 | 1010.4 |
| 20260506011547 | 13 | 255 | 16.1 | 24.1 | 0.00 | 0.15 | 0.15 | 69 | 1014.5 |
| 20260506011044 | 18 | 217 | 14.5 | 22.5 | 0.00 | 0.00 | 0.00 | 28 | 1010.4 |
| 20260506010542 | 18 | 194 | 14.5 | 20.9 | 0.00 | 0.00 | 0.00 | 28 | 1010.3 |
| 20260506010117 | 13 | 229 | 16.1 | 24.1 | 0.00 | 0.15 | 0.15 | 68 | 1014.6 |
| 20260506010052 | 18 | 214 | 11.3 | 22.5 | 0.00 | 0.00 | 0.00 | 28 | 1010.4 |
| 20260506005541 | 18 | 229 | 11.3 | 24.1 | 0.00 | 0.00 | 0.00 | 28 | 1010.3 |
| 20260506005045 | 18 | 221 | 16.1 | 24.1 | 0.00 | 0.00 | 0.00 | 28 | 1010.3 |
| 20260506004556 | 18 | 216 | 14.5 | 24.1 | 0.00 | 0.00 | 0.00 | 28 | 1010.3 |
| 20260506004551 | 13 | 227 | 16.1 | 27.4 | 0.00 | 0.15 | 0.15 | 67 | 1014.3 |
| 20260506004045 | 18 | 197 | 12.9 | 24.1 | 0.00 | 0.00 | 0.00 | 28 | 1010.3 |
| 20260506003547 | 18 | 237 | 16.1 | 24.1 | 0.00 | 0.00 | 0.00 | 28 | 1010.3 |
| 20260506003055 | 18 | 233 | 9.7 | 22.5 | 0.00 | 0.00 | 0.00 | 29 | 1010.2 |
| 20260506003048 | 15 | 244 | 14.5 | 30.6 | 0.00 | 0.15 | 0.15 | 63 | 1014.3 |
| 20260506002544 | 18 | 294 | 12.9 | 22.5 | 0.00 | 0.00 | 0.00 | 29 | 1010.3 |
| 20260506002044 | 18 | 225 | 12.9 | 19.3 | 0.00 | 0.00 | 0.00 | 28 | 1010.2 |
| 20260506001555 | 15 | 229 | 16.1 | 29.0 | 0.00 | 0.15 | 0.15 | 62 | 1014.1 |
| 20260506001048 | 18 | 311 | 4.8 | 22.5 | 0.00 | 0.00 | 0.00 | 28 | 1010.1 |
| 20260506000546 | 18 | 240 | 12.9 | 22.5 | 0.00 | 0.00 | 0.00 | 28 | 1010.2 |
| 20260506000100 | 18 | 226 | 6.4 | 16.1 | 0.00 | 0.00 | 0.00 | 28 | 1010.2 |
| 20260506000043 | 15 | 232 | 17.7 | 30.6 | 0.00 | 0.15 | 0.15 | 62 | 1014.2 |
| 20260505235546 | 17 | 242 | 6.4 | 19.3 | 0.00 | 0.00 | 0.00 | 29 | 1010.2 |
| 20260505235047 | 18 | 210 | 8.0 | 19.3 | 0.00 | 0.00 | 0.00 | 28 | 1010.2 |
| 20260505234606 | 18 | 219 | 8.0 | 19.3 | 0.00 | 0.00 | 0.00 | 28 | 1010.1 |
| 20260505234546 | 15 | 242 | 17.7 | 33.8 | 0.00 | 0.15 | 0.15 | 60 | 1014.0 |
| 20260505234044 | 18 | 226 | 6.4 | 17.7 | 0.00 | 0.00 | 0.00 | 29 | 1010.1 |
| 20260505233544 | 18 | 243 | 8.0 | 14.5 | 0.00 | 0.00 | 0.00 | 29 | 1010.2 |
| 20260505233057 | 15 | 240 | 16.1 | 30.6 | 0.00 | 0.15 | 0.15 | 57 | 1014.1 |
| 20260505233051 | 18 | 179 | 3.2 | 17.7 | 0.00 | 0.00 | 0.00 | 29 | 1010.0 |
| 20260505232544 | 18 | 160 | 8.0 | 17.7 | 0.00 | 0.00 | 0.00 | 29 | 1010.0 |
| 20260505232046 | 18 | 248 | 6.4 | 17.7 | 0.00 | 0.00 | 0.00 | 29 | 1010.0 |
| 20260505231607 | 18 | 222 | 6.4 | 22.5 | 0.00 | 0.00 | 0.00 | 29 | 1010.1 |
| 20260505231548 | 15 | 204 | 16.1 | 27.4 | 0.00 | 0.15 | 0.15 | 61 | 1014.2 |
| 20260505231044 | 18 | 210 | 14.5 | 22.5 | 0.00 | 0.00 | 0.00 | 29 | 1010.1 |
| 20260505230544 | 18 | 229 | 9.7 | 19.3 | 0.00 | 0.00 | 0.00 | 28 | 1010.1 |
| 20260505230054 | 15 | 244 | 12.9 | 24.1 | 0.00 | 0.15 | 0.15 | 60 | 1014.2 |
| 20260505225549 | 19 | 252 | 8.0 | 20.9 | 0.00 | 0.00 | 0.00 | 27 | 1010.1 |
| 20260505225044 | 19 | 174 | 9.7 | 20.9 | 0.00 | 0.00 | 0.00 | 28 | 1010.1 |
| 20260505224557 | 18 | 207 | 12.9 | 20.9 | 0.00 | 0.00 | 0.00 | 28 | 1010.2 |
| 20260505224544 | 14 | 273 | 14.5 | 24.1 | 0.00 | 0.15 | 0.15 | 61 | 1014.4 |
| 20260505224048 | 18 | 278 | 11.3 | 20.9 | 0.00 | 0.00 | 0.00 | 28 | 1010.3 |
| 20260505223544 | 18 | 176 | 6.4 | 22.5 | 0.00 | 0.00 | 0.00 | 29 | 1010.3 |
| 20260505223104 | 18 | 213 | 14.5 | 24.1 | 0.00 | 0.00 | 0.00 | 28 | 1010.4 |
| 20260505223048 | 15 | 258 | 14.5 | 27.4 | 0.00 | 0.15 | 0.15 | 61 | 1014.4 |
| 20260505222545 | 18 | 196 | 16.1 | 24.1 | 0.00 | 0.00 | 0.00 | 28 | 1010.4 |
| 20260505222048 | 18 | 171 | 9.7 | 24.1 | 0.00 | 0.00 | 0.00 | 28 | 1010.4 |
| 20260505221600 | 18 | 155 | 11.3 | 24.1 | 0.00 | 0.00 | 0.00 | 27 | 1010.6 |
| 20260505221549 | 15 | 186 | 11.3 | 27.4 | 0.00 | 0.15 | 0.15 | 60 | 1014.4 |
| 20260505221046 | 18 | 139 | 8.0 | 22.5 | 0.00 | 0.00 | 0.00 | 27 | 1010.7 |
| 20260505220544 | 18 | 231 | 12.9 | 24.1 | 0.00 | 0.00 | 0.00 | 27 | 1010.7 |
| 20260505220058 | 18 | 174 | 12.9 | 24.1 | 0.00 | 0.00 | 0.00 | 27 | 1010.8 |
| 20260505220053 | 15 | 215 | 12.9 | 29.0 | 0.00 | 0.15 | 0.15 | 61 | 1014.5 |
| 20260505215545 | 19 | 160 | 11.3 | 22.5 | 0.00 | 0.00 | 0.00 | 27 | 1010.9 |
| 20260505215046 | 18 | 245 | 8.0 | 30.6 | 0.00 | 0.00 | 0.00 | 28 | 1010.9 |
| 20260505214614 | 18 | 184 | 12.9 | 30.6 | 0.00 | 0.00 | 0.00 | 29 | 1010.9 |
| 20260505214539 | 16 | 234 | 14.5 | 27.4 | 0.00 | 0.15 | 0.15 | 59 | 1014.6 |
| 20260505214044 | 18 | 176 | 12.9 | 30.6 | 0.00 | 0.00 | 0.00 | 30 | 1010.8 |
| 20260505213544 | 17 | 208 | 11.3 | 20.9 | 0.00 | 0.00 | 0.00 | 30 | 1011.0 |
| 20260505213213 | 17 | 214 | 8.0 | 20.9 | 0.00 | 0.00 | 0.00 | 30 | 1011.1 |
| 20260505213050 | 16 | 242 | 12.9 | 32.2 | 0.00 | 0.15 | 0.15 | 57 | 1014.7 |
| 20260505212548 | 17 | 223 | 11.3 | 25.7 | 0.00 | 0.00 | 0.00 | 29 | 1011.2 |
| 20260505212043 | 18 | 152 | 17.7 | 25.7 | 0.00 | 0.00 | 0.00 | 29 | 1011.3 |
| 20260505211551 | 16 | 231 | 19.3 | 29.0 | 0.00 | 0.15 | 0.15 | 57 | 1014.7 |
| 20260505211549 | 18 | 199 | 16.1 | 25.7 | 0.00 | 0.00 | 0.00 | 29 | 1011.4 |
| 20260505211046 | 18 | 192 | 14.5 | 24.1 | 0.00 | 0.00 | 0.00 | 29 | 1011.4 |
| 20260505210542 | 18 | 146 | 9.7 | 27.4 | 0.00 | 0.00 | 0.00 | 30 | 1011.4 |
| 20260505210052 | 15 | 196 | 16.1 | 29.0 | 0.00 | 0.15 | 0.15 | 60 | 1014.9 |
| 20260505210050 | 18 | 220 | 17.7 | 27.4 | 0.00 | 0.00 | 0.00 | 30 | 1011.5 |
| 20260505205545 | 18 | 157 | 9.7 | 25.7 | 0.00 | 0.00 | 0.00 | 31 | 1011.3 |
| 20260505205050 | 17 | 217 | 12.9 | 27.4 | 0.00 | 0.00 | 0.00 | 30 | 1011.5 |
| 20260505204556 | 18 | 158 | 11.3 | 27.4 | 0.00 | 0.00 | 0.00 | 30 | 1011.4 |
| 20260505204543 | 16 | 321 | 14.5 | 29.0 | 0.00 | 0.15 | 0.15 | 59 | 1014.8 |
| 20260505204045 | 18 | 171 | 11.3 | 27.4 | 0.00 | 0.00 | 0.00 | 30 | 1011.4 |
| 20260505203546 | 17 | 213 | 14.5 | 24.1 | 0.00 | 0.00 | 0.00 | 32 | 1011.3 |
| 20260505203054 | 17 | 224 | 14.5 | 22.5 | 0.00 | 0.00 | 0.00 | 32 | 1011.4 |
| 20260505203050 | 16 | 218 | 4.8 | 29.0 | 0.00 | 0.15 | 0.15 | 60 | 1014.8 |
| 20260505202544 | 17 | 206 | 12.9 | 22.5 | 0.00 | 0.00 | 0.00 | 32 | 1011.4 |
| 20260505202043 | 17 | 217 | 16.1 | 24.1 | 0.00 | 0.00 | 0.00 | 32 | 1011.4 |
| 20260505201556 | 17 | 177 | 16.1 | 24.1 | 0.00 | 0.00 | 0.00 | 32 | 1011.4 |